Hickory Grove, Louisiana
Current Conditions -  °F | °C
As of 3:53 AM on Friday 21 Nov 2014 (Local Time) from KESF Reporting Station
Light Rain Light Rain  
Wind Chill: 10°   Ceiling: 9500
Heat Index: 10°   Visibility: 10mi
Dew Point:   Wind: 0mph
Humidity: 93%   Direction: NA
Pressure: 30.19"   Gusts: NA
Location:  31.3606°N, 92.2142°W
Report Text: KESF 210953Z AUTO 00000KT 10SM -RA OVC095 10/09 A3019 RMK AO2 RAB50 SLP223 P0000 T01000089
Loading
Personal Weather Stations






























Interactive Weather Map New forecast layout! Learn more

10-Day Weather Forecast

Advertisements
Track Severe Weather on mobile